sensor_id;sensor_type;location;lat;lon;timestamp;temperature;humidity
53599;DHT22;39485;45.702;11.364;2022-08-19T00:01:31;20.40;99.90
53599;DHT22;39485;45.702;11.364;2022-08-19T00:03:59;20.40;99.90
53599;DHT22;39485;45.702;11.364;2022-08-19T00:06:26;20.40;99.90
53599;DHT22;39485;45.702;11.364;2022-08-19T00:08:52;20.40;99.90
53599;DHT22;39485;45.702;11.364;2022-08-19T00:11:18;20.40;99.90
53599;DHT22;39485;45.702;11.364;2022-08-19T00:13:44;20.40;99.90
53599;DHT22;39485;45.702;11.364;2022-08-19T00:16:11;20.40;99.90
53599;DHT22;39485;45.702;11.364;2022-08-19T00:18:37;20.40;99.90
53599;DHT22;39485;45.702;11.364;2022-08-19T00:21:02;20.40;99.90
53599;DHT22;39485;45.702;11.364;2022-08-19T00:23:33;20.40;99.90
53599;DHT22;39485;45.702;11.364;2022-08-19T00:26:00;20.40;99.90
53599;DHT22;39485;45.702;11.364;2022-08-19T00:28:26;20.40;99.90
53599;DHT22;39485;45.702;11.364;2022-08-19T00:30:52;20.40;99.90
53599;DHT22;39485;45.702;11.364;2022-08-19T00:33:19;20.40;99.90
53599;DHT22;39485;45.702;11.364;2022-08-19T00:35:44;20.40;99.90
53599;DHT22;39485;45.702;11.364;2022-08-19T00:38:10;20.40;99.90
53599;DHT22;39485;45.702;11.364;2022-08-19T00:40:36;20.40;99.90
53599;DHT22;39485;45.702;11.364;2022-08-19T03:23:04;19.20;99.90
53599;DHT22;39485;45.702;11.364;2022-08-19T03:25:30;19.10;99.90
53599;DHT22;39485;45.702;11.364;2022-08-19T03:27:55;19.10;99.90
53599;DHT22;39485;45.702;11.364;2022-08-19T03:30:21;19.10;99.90
53599;DHT22;39485;45.702;11.364;2022-08-19T03:32:47;19.10;99.90
53599;DHT22;39485;45.702;11.364;2022-08-19T03:35:12;19.10;99.90
53599;DHT22;39485;45.702;11.364;2022-08-19T03:37:38;19.10;99.90
53599;DHT22;39485;45.702;11.364;2022-08-19T03:40:04;19.10;99.90
53599;DHT22;39485;45.702;11.364;2022-08-19T03:42:30;19.10;99.90
53599;DHT22;39485;45.702;11.364;2022-08-19T03:44:56;19.10;99.90
53599;DHT22;39485;45.702;11.364;2022-08-19T03:47:21;19.00;99.90
53599;DHT22;39485;45.702;11.364;2022-08-19T03:49:47;19.00;99.90
53599;DHT22;39485;45.702;11.364;2022-08-19T03:52:13;19.00;99.90
53599;DHT22;39485;45.702;11.364;2022-08-19T03:54:39;19.00;99.90
53599;DHT22;39485;45.702;11.364;2022-08-19T03:57:05;19.00;99.90
53599;DHT22;39485;45.702;11.364;2022-08-19T03:59:34;18.90;99.90
53599;DHT22;39485;45.702;11.364;2022-08-19T04:02:09;18.80;99.90
53599;DHT22;39485;45.702;11.364;2022-08-19T04:04:37;18.80;99.90
53599;DHT22;39485;45.702;11.364;2022-08-19T04:07:03;18.80;99.90
53599;DHT22;39485;45.702;11.364;2022-08-19T04:09:29;18.80;99.90
53599;DHT22;39485;45.702;11.364;2022-08-19T04:11:56;18.70;99.90
53599;DHT22;39485;45.702;11.364;2022-08-19T04:14:25;18.70;99.90
53599;DHT22;39485;45.702;11.364;2022-08-19T04:16:51;18.70;99.90
53599;DHT22;39485;45.702;11.364;2022-08-19T04:19:18;18.70;99.90
53599;DHT22;39485;45.702;11.364;2022-08-19T04:21:47;18.70;99.90
53599;DHT22;39485;45.702;11.364;2022-08-19T04:24:13;18.60;99.90
53599;DHT22;39485;45.702;11.364;2022-08-19T04:26:39;18.60;99.90
53599;DHT22;39485;45.702;11.364;2022-08-19T04:29:08;18.50;99.90
53599;DHT22;39485;45.702;11.364;2022-08-19T04:31:35;18.60;99.90
53599;DHT22;39485;45.702;11.364;2022-08-19T04:34:04;18.60;99.90
53599;DHT22;39485;45.702;11.364;2022-08-19T04:36:32;18.60;99.90
53599;DHT22;39485;45.702;11.364;2022-08-19T04:39:02;18.60;99.90
53599;DHT22;39485;45.702;11.364;2022-08-19T04:41:28;18.60;99.90
53599;DHT22;39485;45.702;11.364;2022-08-19T04:44:13;18.60;99.90
53599;DHT22;39485;45.702;11.364;2022-08-19T04:46:40;18.60;99.90
53599;DHT22;39485;45.702;11.364;2022-08-19T04:49:07;18.60;99.90
53599;DHT22;39485;45.702;11.364;2022-08-19T04:51:34;18.60;99.90
53599;DHT22;39485;45.702;11.364;2022-08-19T04:54:01;18.50;99.90
53599;DHT22;39485;45.702;11.364;2022-08-19T04:56:28;18.50;99.90
53599;DHT22;39485;45.702;11.364;2022-08-19T04:58:55;18.50;99.90
53599;DHT22;39485;45.702;11.364;2022-08-19T05:01:24;18.50;99.90
53599;DHT22;39485;45.702;11.364;2022-08-19T05:03:51;18.50;99.90
53599;DHT22;39485;45.702;11.364;2022-08-19T05:06:18;18.50;99.90
53599;DHT22;39485;45.702;11.364;2022-08-19T05:08:45;18.50;99.90
53599;DHT22;39485;45.702;11.364;2022-08-19T05:11:21;18.50;99.90
53599;DHT22;39485;45.702;11.364;2022-08-19T05:13:48;18.50;99.90
53599;DHT22;39485;45.702;11.364;2022-08-19T05:16:16;18.50;99.90
53599;DHT22;39485;45.702;11.364;2022-08-19T05:18:41;18.50;99.90
53599;DHT22;39485;45.702;11.364;2022-08-19T05:21:26;18.50;99.90
53599;DHT22;39485;45.702;11.364;2022-08-19T05:24:11;18.50;99.90
53599;DHT22;39485;45.702;11.364;2022-08-19T05:26:39;18.50;99.90
53599;DHT22;39485;45.702;11.364;2022-08-19T05:29:06;18.50;99.90
53599;DHT22;39485;45.702;11.364;2022-08-19T05:31:36;18.60;99.90
53599;DHT22;39485;45.702;11.364;2022-08-19T05:34:04;18.60;99.90
53599;DHT22;39485;45.702;11.364;2022-08-19T05:36:35;18.70;99.90
53599;DHT22;39485;45.702;11.364;2022-08-19T05:39:02;18.80;99.90
53599;DHT22;39485;45.702;11.364;2022-08-19T05:41:29;18.80;99.90
53599;DHT22;39485;45.702;11.364;2022-08-19T05:44:02;19.00;99.90
53599;DHT22;39485;45.702;11.364;2022-08-19T05:46:28;19.00;99.90
53599;DHT22;39485;45.702;11.364;2022-08-19T05:48:55;19.20;99.90
53599;DHT22;39485;45.702;11.364;2022-08-19T05:51:22;19.30;99.90
53599;DHT22;39485;45.702;11.364;2022-08-19T05:53:48;19.40;99.90
53599;DHT22;39485;45.702;11.364;2022-08-19T05:56:16;19.60;99.90
53599;DHT22;39485;45.702;11.364;2022-08-19T05:58:43;19.70;99.90
53599;DHT22;39485;45.702;11.364;2022-08-19T06:01:13;19.80;99.90
53599;DHT22;39485;45.702;11.364;2022-08-19T06:03:39;19.90;99.90
53599;DHT22;39485;45.702;11.364;2022-08-19T06:06:07;19.90;99.90
53599;DHT22;39485;45.702;11.364;2022-08-19T06:08:35;19.90;99.90
53599;DHT22;39485;45.702;11.364;2022-08-19T06:14:01;19.90;99.90
53599;DHT22;39485;45.702;11.364;2022-08-19T06:16:28;20.00;99.90
53599;DHT22;39485;45.702;11.364;2022-08-19T06:18:55;20.00;99.90
53599;DHT22;39485;45.702;11.364;2022-08-19T06:21:24;20.00;99.90
53599;DHT22;39485;45.702;11.364;2022-08-19T06:23:51;20.00;99.90
53599;DHT22;39485;45.702;11.364;2022-08-19T06:26:19;20.10;99.90
53599;DHT22;39485;45.702;11.364;2022-08-19T06:28:46;20.10;99.90
53599;DHT22;39485;45.702;11.364;2022-08-19T06:31:14;20.20;99.90
53599;DHT22;39485;45.702;11.364;2022-08-19T06:33:44;20.20;99.90
53599;DHT22;39485;45.702;11.364;2022-08-19T06:36:24;20.20;99.90
53599;DHT22;39485;45.702;11.364;2022-08-19T06:38:54;20.30;99.90
53599;DHT22;39485;45.702;11.364;2022-08-19T06:41:19;20.40;99.90
53599;DHT22;39485;45.702;11.364;2022-08-19T06:43:45;20.40;99.90
53599;DHT22;39485;45.702;11.364;2022-08-19T06:46:14;20.40;99.90
53599;DHT22;39485;45.702;11.364;2022-08-19T06:48:41;20.50;99.90
53599;DHT22;39485;45.702;11.364;2022-08-19T06:51:07;20.50;99.90
53599;DHT22;39485;45.702;11.364;2022-08-19T06:53:33;20.50;99.90
53599;DHT22;39485;45.702;11.364;2022-08-19T06:55:59;20.50;99.90
53599;DHT22;39485;45.702;11.364;2022-08-19T06:58:30;20.50;99.90
53599;DHT22;39485;45.702;11.364;2022-08-19T07:00:59;20.50;99.90
53599;DHT22;39485;45.702;11.364;2022-08-19T07:03:27;20.50;99.90
53599;DHT22;39485;45.702;11.364;2022-08-19T07:05:54;20.50;99.90
53599;DHT22;39485;45.702;11.364;2022-08-19T07:08:19;20.50;99.90
53599;DHT22;39485;45.702;11.364;2022-08-19T07:10:46;20.50;99.90
53599;DHT22;39485;45.702;11.364;2022-08-19T07:13:11;20.40;99.90
53599;DHT22;39485;45.702;11.364;2022-08-19T07:15:37;20.50;99.90
53599;DHT22;39485;45.702;11.364;2022-08-19T07:18:03;20.40;99.90
53599;DHT22;39485;45.702;11.364;2022-08-19T07:20:29;20.40;99.90
53599;DHT22;39485;45.702;11.364;2022-08-19T07:22:54;20.30;99.90
53599;DHT22;39485;45.702;11.364;2022-08-19T07:25:20;20.30;99.90
53599;DHT22;39485;45.702;11.364;2022-08-19T07:27:48;20.30;99.90
53599;DHT22;39485;45.702;11.364;2022-08-19T07:30:14;20.20;99.90
53599;DHT22;39485;45.702;11.364;2022-08-19T07:32:40;20.20;99.90
53599;DHT22;39485;45.702;11.364;2022-08-19T07:35:08;20.20;99.90
53599;DHT22;39485;45.702;11.364;2022-08-19T07:37:35;20.20;99.90
53599;DHT22;39485;45.702;11.364;2022-08-19T07:40:04;20.20;99.90
53599;DHT22;39485;45.702;11.364;2022-08-19T07:42:30;20.10;99.90
53599;DHT22;39485;45.702;11.364;2022-08-19T07:44:56;20.20;99.90
53599;DHT22;39485;45.702;11.364;2022-08-19T07:47:22;20.10;99.90
53599;DHT22;39485;45.702;11.364;2022-08-19T07:49:47;20.10;99.90
53599;DHT22;39485;45.702;11.364;2022-08-19T07:52:14;20.10;99.90
53599;DHT22;39485;45.702;11.364;2022-08-19T07:54:40;20.10;99.90
53599;DHT22;39485;45.702;11.364;2022-08-19T07:57:07;20.10;99.90
53599;DHT22;39485;45.702;11.364;2022-08-19T07:59:33;20.10;99.90
53599;DHT22;39485;45.702;11.364;2022-08-19T08:02:00;20.20;99.90
53599;DHT22;39485;45.702;11.364;2022-08-19T08:04:28;20.20;99.90
53599;DHT22;39485;45.702;11.364;2022-08-19T08:07:12;20.10;99.90
53599;DHT22;39485;45.702;11.364;2022-08-19T08:09:56;20.10;99.90
53599;DHT22;39485;45.702;11.364;2022-08-19T08:12:42;20.00;99.90
53599;DHT22;39485;45.702;11.364;2022-08-19T08:15:12;19.90;99.90
53599;DHT22;39485;45.702;11.364;2022-08-19T08:17:42;19.80;99.90
53599;DHT22;39485;45.702;11.364;2022-08-19T08:20:09;19.60;99.90
53599;DHT22;39485;45.702;11.364;2022-08-19T08:22:35;19.50;99.90
53599;DHT22;39485;45.702;11.364;2022-08-19T08:25:23;19.50;99.90
53599;DHT22;39485;45.702;11.364;2022-08-19T08:27:49;19.40;99.90
53599;DHT22;39485;45.702;11.364;2022-08-19T08:30:21;19.30;99.90
53599;DHT22;39485;45.702;11.364;2022-08-19T08:32:48;19.20;99.90
53599;DHT22;39485;45.702;11.364;2022-08-19T08:35:16;19.20;99.90
53599;DHT22;39485;45.702;11.364;2022-08-19T08:37:43;19.20;99.90
53599;DHT22;39485;45.702;11.364;2022-08-19T08:45:28;19.20;99.90
53599;DHT22;39485;45.702;11.364;2022-08-19T08:47:57;19.20;99.90
53599;DHT22;39485;45.702;11.364;2022-08-19T08:50:34;19.20;99.90
53599;DHT22;39485;45.702;11.364;2022-08-19T08:53:02;19.10;99.90
53599;DHT22;39485;45.702;11.364;2022-08-19T08:55:30;19.10;99.90
53599;DHT22;39485;45.702;11.364;2022-08-19T08:58:02;19.10;99.90
53599;DHT22;39485;45.702;11.364;2022-08-19T09:02:56;19.10;99.90
53599;DHT22;39485;45.702;11.364;2022-08-19T09:05:26;19.00;99.90
53599;DHT22;39485;45.702;11.364;2022-08-19T09:08:04;19.00;99.90
53599;DHT22;39485;45.702;11.364;2022-08-19T09:10:47;19.00;99.90
53599;DHT22;39485;45.702;11.364;2022-08-19T09:16:02;19.00;99.90
53599;DHT22;39485;45.702;11.364;2022-08-19T09:18:44;19.00;99.90
53599;DHT22;39485;45.702;11.364;2022-08-19T09:21:13;19.00;99.90
53599;DHT22;39485;45.702;11.364;2022-08-19T09:23:38;19.00;99.90
53599;DHT22;39485;45.702;11.364;2022-08-19T09:26:16;19.10;99.90
53599;DHT22;39485;45.702;11.364;2022-08-19T09:28:44;19.10;99.90
53599;DHT22;39485;45.702;11.364;2022-08-19T09:31:13;19.10;99.90
53599;DHT22;39485;45.702;11.364;2022-08-19T09:33:39;19.20;99.90
53599;DHT22;39485;45.702;11.364;2022-08-19T09:36:10;19.20;99.90
53599;DHT22;39485;45.702;11.364;2022-08-19T09:38:37;19.20;99.90
53599;DHT22;39485;45.702;11.364;2022-08-19T09:41:09;19.30;99.90
53599;DHT22;39485;45.702;11.364;2022-08-19T09:43:36;19.30;99.90
53599;DHT22;39485;45.702;11.364;2022-08-19T09:46:04;19.30;99.90
53599;DHT22;39485;45.702;11.364;2022-08-19T09:48:32;19.30;99.90
53599;DHT22;39485;45.702;11.364;2022-08-19T09:51:06;19.40;99.90
53599;DHT22;39485;45.702;11.364;2022-08-19T09:53:37;19.40;99.90
53599;DHT22;39485;45.702;11.364;2022-08-19T09:56:04;19.40;99.90
53599;DHT22;39485;45.702;11.364;2022-08-19T09:58:32;19.50;99.90
53599;DHT22;39485;45.702;11.364;2022-08-19T10:00:59;19.50;99.90
53599;DHT22;39485;45.702;11.364;2022-08-19T10:03:26;19.50;99.90
53599;DHT22;39485;45.702;11.364;2022-08-19T10:05:53;19.60;99.90
53599;DHT22;39485;45.702;11.364;2022-08-19T10:08:25;19.70;99.90
53599;DHT22;39485;45.702;11.364;2022-08-19T10:10:53;19.70;99.90
53599;DHT22;39485;45.702;11.364;2022-08-19T10:13:21;19.70;99.90
53599;DHT22;39485;45.702;11.364;2022-08-19T10:15:49;19.80;99.90
53599;DHT22;39485;45.702;11.364;2022-08-19T10:18:17;19.80;99.90
53599;DHT22;39485;45.702;11.364;2022-08-19T10:20:44;19.90;99.90
53599;DHT22;39485;45.702;11.364;2022-08-19T10:23:11;19.90;99.90
53599;DHT22;39485;45.702;11.364;2022-08-19T10:25:37;20.00;99.90
53599;DHT22;39485;45.702;11.364;2022-08-19T10:28:04;20.00;99.90
53599;DHT22;39485;45.702;11.364;2022-08-19T10:30:31;20.10;99.90
53599;DHT22;39485;45.702;11.364;2022-08-19T10:32:57;20.10;99.90
53599;DHT22;39485;45.702;11.364;2022-08-19T10:35:23;20.20;99.90
53599;DHT22;39485;45.702;11.364;2022-08-19T10:37:50;20.30;99.90
53599;DHT22;39485;45.702;11.364;2022-08-19T10:40:15;20.40;99.90
53599;DHT22;39485;45.702;11.364;2022-08-19T10:42:41;20.50;99.90
53599;DHT22;39485;45.702;11.364;2022-08-19T10:45:07;20.60;99.90
53599;DHT22;39485;45.702;11.364;2022-08-19T10:47:35;20.70;99.90
53599;DHT22;39485;45.702;11.364;2022-08-19T10:50:00;20.80;99.90
53599;DHT22;39485;45.702;11.364;2022-08-19T10:52:47;20.80;99.90
53599;DHT22;39485;45.702;11.364;2022-08-19T10:55:13;21.00;99.90
53599;DHT22;39485;45.702;11.364;2022-08-19T10:57:57;21.00;99.90
53599;DHT22;39485;45.702;11.364;2022-08-19T11:00:24;21.10;99.90
53599;DHT22;39485;45.702;11.364;2022-08-19T11:02:51;21.20;99.90
53599;DHT22;39485;45.702;11.364;2022-08-19T11:05:18;21.20;99.90
53599;DHT22;39485;45.702;11.364;2022-08-19T11:07:44;21.30;99.90
53599;DHT22;39485;45.702;11.364;2022-08-19T11:10:13;21.40;99.90
53599;DHT22;39485;45.702;11.364;2022-08-19T11:12:40;21.50;99.90
53599;DHT22;39485;45.702;11.364;2022-08-19T11:15:07;21.60;99.90
53599;DHT22;39485;45.702;11.364;2022-08-19T11:17:34;21.70;99.90
53599;DHT22;39485;45.702;11.364;2022-08-19T11:20:01;21.80;99.90
53599;DHT22;39485;45.702;11.364;2022-08-19T11:22:29;21.90;99.90
53599;DHT22;39485;45.702;11.364;2022-08-19T11:24:55;22.00;99.90
53599;DHT22;39485;45.702;11.364;2022-08-19T11:27:21;22.10;99.90
53599;DHT22;39485;45.702;11.364;2022-08-19T11:29:47;22.20;99.90
53599;DHT22;39485;45.702;11.364;2022-08-19T11:32:12;22.30;99.90
53599;DHT22;39485;45.702;11.364;2022-08-19T11:34:38;22.30;99.90
53599;DHT22;39485;45.702;11.364;2022-08-19T11:37:05;22.30;99.90
53599;DHT22;39485;45.702;11.364;2022-08-19T11:39:32;22.30;99.90
53599;DHT22;39485;45.702;11.364;2022-08-19T11:42:01;22.30;99.90
53599;DHT22;39485;45.702;11.364;2022-08-19T11:44:46;22.30;99.90
53599;DHT22;39485;45.702;11.364;2022-08-19T11:47:12;22.30;99.90
53599;DHT22;39485;45.702;11.364;2022-08-19T11:49:38;22.30;99.90
53599;DHT22;39485;45.702;11.364;2022-08-19T11:52:04;22.30;99.90
53599;DHT22;39485;45.702;11.364;2022-08-19T11:54:29;22.20;99.90
53599;DHT22;39485;45.702;11.364;2022-08-19T11:56:56;22.20;99.90
53599;DHT22;39485;45.702;11.364;2022-08-19T11:59:21;22.20;99.90
53599;DHT22;39485;45.702;11.364;2022-08-19T12:01:47;22.20;99.90
53599;DHT22;39485;45.702;11.364;2022-08-19T12:04:13;22.20;99.90
53599;DHT22;39485;45.702;11.364;2022-08-19T12:06:40;22.20;99.90
53599;DHT22;39485;45.702;11.364;2022-08-19T12:09:07;22.10;99.90
53599;DHT22;39485;45.702;11.364;2022-08-19T12:11:35;22.10;99.90
53599;DHT22;39485;45.702;11.364;2022-08-19T12:14:02;22.10;99.90
53599;DHT22;39485;45.702;11.364;2022-08-19T12:16:29;22.10;99.90
53599;DHT22;39485;45.702;11.364;2022-08-19T12:18:56;22.10;99.90
53599;DHT22;39485;45.702;11.364;2022-08-19T12:21:25;22.10;99.90
53599;DHT22;39485;45.702;11.364;2022-08-19T12:23:54;22.10;99.90
53599;DHT22;39485;45.702;11.364;2022-08-19T12:26:20;22.00;99.90
53599;DHT22;39485;45.702;11.364;2022-08-19T12:28:46;22.00;99.90
53599;DHT22;39485;45.702;11.364;2022-08-19T12:31:14;21.80;99.90
53599;DHT22;39485;45.702;11.364;2022-08-19T12:33:41;21.70;99.90
53599;DHT22;39485;45.702;11.364;2022-08-19T12:36:10;21.60;99.90
53599;DHT22;39485;45.702;11.364;2022-08-19T12:38:37;21.50;99.90
53599;DHT22;39485;45.702;11.364;2022-08-19T12:41:04;21.40;99.90
53599;DHT22;39485;45.702;11.364;2022-08-19T12:43:33;21.30;99.90
53599;DHT22;39485;45.702;11.364;2022-08-19T12:46:00;21.20;99.90
53599;DHT22;39485;45.702;11.364;2022-08-19T12:48:26;21.20;99.90
53599;DHT22;39485;45.702;11.364;2022-08-19T12:50:52;21.10;99.90
53599;DHT22;39485;45.702;11.364;2022-08-19T12:53:18;21.00;99.90
53599;DHT22;39485;45.702;11.364;2022-08-19T12:55:43;21.00;99.90
53599;DHT22;39485;45.702;11.364;2022-08-19T12:58:09;20.90;99.90
53599;DHT22;39485;45.702;11.364;2022-08-19T13:00:36;20.80;99.90
53599;DHT22;39485;45.702;11.364;2022-08-19T13:03:02;20.80;99.90
53599;DHT22;39485;45.702;11.364;2022-08-19T13:05:29;20.80;99.90
53599;DHT22;39485;45.702;11.364;2022-08-19T13:07:58;20.90;99.90
53599;DHT22;39485;45.702;11.364;2022-08-19T13:10:27;20.90;99.90
53599;DHT22;39485;45.702;11.364;2022-08-19T13:12:53;21.00;99.90
53599;DHT22;39485;45.702;11.364;2022-08-19T13:15:22;21.00;99.90
53599;DHT22;39485;45.702;11.364;2022-08-19T13:17:49;21.10;99.90
53599;DHT22;39485;45.702;11.364;2022-08-19T13:20:17;21.20;99.90
53599;DHT22;39485;45.702;11.364;2022-08-19T13:22:44;21.30;99.90
53599;DHT22;39485;45.702;11.364;2022-08-19T13:25:11;21.40;99.90
53599;DHT22;39485;45.702;11.364;2022-08-19T13:27:38;21.40;99.90
53599;DHT22;39485;45.702;11.364;2022-08-19T13:30:07;21.50;99.90
53599;DHT22;39485;45.702;11.364;2022-08-19T13:32:51;21.60;99.90
53599;DHT22;39485;45.702;11.364;2022-08-19T13:35:35;21.80;99.90
53599;DHT22;39485;45.702;11.364;2022-08-19T13:38:01;21.90;99.90
53599;DHT22;39485;45.702;11.364;2022-08-19T13:40:30;22.00;99.90
53599;DHT22;39485;45.702;11.364;2022-08-19T13:42:56;22.20;99.90
53599;DHT22;39485;45.702;11.364;2022-08-19T13:45:24;22.40;99.90
53599;DHT22;39485;45.702;11.364;2022-08-19T13:58:26;22.50;99.90
53599;DHT22;39485;45.702;11.364;2022-08-19T14:00:52;23.30;99.90
53599;DHT22;39485;45.702;11.364;2022-08-19T14:03:18;23.30;99.90
53599;DHT22;39485;45.702;11.364;2022-08-19T14:05:43;23.30;99.90
53599;DHT22;39485;45.702;11.364;2022-08-19T14:08:09;23.40;99.90
53599;DHT22;39485;45.702;11.364;2022-08-19T14:10:35;23.60;99.90
53599;DHT22;39485;45.702;11.364;2022-08-19T14:13:02;23.60;99.90
53599;DHT22;39485;45.702;11.364;2022-08-19T14:15:29;23.80;99.90
53599;DHT22;39485;45.702;11.364;2022-08-19T14:17:55;23.90;99.90
53599;DHT22;39485;45.702;11.364;2022-08-19T14:20:21;24.00;99.90
53599;DHT22;39485;45.702;11.364;2022-08-19T14:22:48;24.00;99.90
53599;DHT22;39485;45.702;11.364;2022-08-19T14:25:17;24.00;99.90
53599;DHT22;39485;45.702;11.364;2022-08-19T14:27:43;24.00;99.90
53599;DHT22;39485;45.702;11.364;2022-08-19T14:30:12;24.10;99.90
53599;DHT22;39485;45.702;11.364;2022-08-19T14:32:38;24.20;99.90
53599;DHT22;39485;45.702;11.364;2022-08-19T14:35:04;24.10;99.90
53599;DHT22;39485;45.702;11.364;2022-08-19T14:37:30;24.10;99.90
53599;DHT22;39485;45.702;11.364;2022-08-19T14:39:56;24.00;99.90
53599;DHT22;39485;45.702;11.364;2022-08-19T14:42:22;24.00;99.90
53599;DHT22;39485;45.702;11.364;2022-08-19T14:44:47;24.00;99.90
53599;DHT22;39485;45.702;11.364;2022-08-19T14:47:13;24.00;99.90
53599;DHT22;39485;45.702;11.364;2022-08-19T14:49:39;24.00;99.90
53599;DHT22;39485;45.702;11.364;2022-08-19T14:52:05;24.10;99.90
53599;DHT22;39485;45.702;11.364;2022-08-19T14:54:31;24.20;99.90
53599;DHT22;39485;45.702;11.364;2022-08-19T14:56:57;24.20;99.90
53599;DHT22;39485;45.702;11.364;2022-08-19T14:59:23;24.30;99.90
53599;DHT22;39485;45.702;11.364;2022-08-19T15:01:49;24.40;99.90
53599;DHT22;39485;45.702;11.364;2022-08-19T15:04:15;24.40;99.90
53599;DHT22;39485;45.702;11.364;2022-08-19T15:06:41;24.40;99.90
53599;DHT22;39485;45.702;11.364;2022-08-19T15:09:08;24.40;99.90
53599;DHT22;39485;45.702;11.364;2022-08-19T15:11:34;24.40;99.90
53599;DHT22;39485;45.702;11.364;2022-08-19T15:14:00;24.40;99.90
53599;DHT22;39485;45.702;11.364;2022-08-19T15:16:27;24.30;99.90
53599;DHT22;39485;45.702;11.364;2022-08-19T15:18:55;24.30;99.90
53599;DHT22;39485;45.702;11.364;2022-08-19T15:21:22;24.30;99.90
53599;DHT22;39485;45.702;11.364;2022-08-19T15:23:49;24.30;99.90
53599;DHT22;39485;45.702;11.364;2022-08-19T15:26:17;24.20;99.90
53599;DHT22;39485;45.702;11.364;2022-08-19T15:28:44;24.20;99.90
53599;DHT22;39485;45.702;11.364;2022-08-19T15:31:11;24.20;99.90
53599;DHT22;39485;45.702;11.364;2022-08-19T15:33:38;24.20;99.90
53599;DHT22;39485;45.702;11.364;2022-08-19T15:36:07;24.20;99.90
53599;DHT22;39485;45.702;11.364;2022-08-19T15:38:33;24.20;99.90
53599;DHT22;39485;45.702;11.364;2022-08-19T15:41:03;24.10;99.90
53599;DHT22;39485;45.702;11.364;2022-08-19T15:43:49;24.00;99.90
53599;DHT22;39485;45.702;11.364;2022-08-19T15:46:20;23.90;99.90
53599;DHT22;39485;45.702;11.364;2022-08-19T15:48:47;23.90;99.90
53599;DHT22;39485;45.702;11.364;2022-08-19T15:51:13;23.80;99.90
53599;DHT22;39485;45.702;11.364;2022-08-19T15:53:39;23.80;99.90
53599;DHT22;39485;45.702;11.364;2022-08-19T15:56:07;23.70;99.90
53599;DHT22;39485;45.702;11.364;2022-08-19T15:58:33;23.70;99.90
53599;DHT22;39485;45.702;11.364;2022-08-19T16:01:18;23.60;99.90
53599;DHT22;39485;45.702;11.364;2022-08-19T16:03:59;23.60;99.90
53599;DHT22;39485;45.702;11.364;2022-08-19T16:06:55;23.60;99.90
53599;DHT22;39485;45.702;11.364;2022-08-19T16:09:24;23.50;99.90
53599;DHT22;39485;45.702;11.364;2022-08-19T16:11:50;23.50;99.90
53599;DHT22;39485;45.702;11.364;2022-08-19T16:14:18;23.40;99.90
53599;DHT22;39485;45.702;11.364;2022-08-19T16:16:46;23.40;99.90
53599;DHT22;39485;45.702;11.364;2022-08-19T16:19:14;23.40;99.90
53599;DHT22;39485;45.702;11.364;2022-08-19T16:21:44;23.30;99.90
53599;DHT22;39485;45.702;11.364;2022-08-19T16:24:12;23.30;99.90
53599;DHT22;39485;45.702;11.364;2022-08-19T16:26:39;23.30;99.90
53599;DHT22;39485;45.702;11.364;2022-08-19T16:29:06;23.20;99.90
53599;DHT22;39485;45.702;11.364;2022-08-19T16:31:35;23.10;99.90
53599;DHT22;39485;45.702;11.364;2022-08-19T16:34:02;23.10;99.90
53599;DHT22;39485;45.702;11.364;2022-08-19T16:36:28;23.10;99.90
53599;DHT22;39485;45.702;11.364;2022-08-19T16:38:55;23.10;99.90
53599;DHT22;39485;45.702;11.364;2022-08-19T16:41:22;23.10;99.90
53599;DHT22;39485;45.702;11.364;2022-08-19T16:43:48;23.20;99.90
53599;DHT22;39485;45.702;11.364;2022-08-19T16:46:17;23.20;99.90
53599;DHT22;39485;45.702;11.364;2022-08-19T16:48:43;23.20;99.90
53599;DHT22;39485;45.702;11.364;2022-08-19T16:51:11;23.30;99.90
53599;DHT22;39485;45.702;11.364;2022-08-19T16:53:38;23.30;99.90
53599;DHT22;39485;45.702;11.364;2022-08-19T16:56:06;23.30;99.90
53599;DHT22;39485;45.702;11.364;2022-08-19T16:58:32;23.40;99.90
53599;DHT22;39485;45.702;11.364;2022-08-19T17:00:59;23.40;99.90
53599;DHT22;39485;45.702;11.364;2022-08-19T17:03:25;23.40;99.90
53599;DHT22;39485;45.702;11.364;2022-08-19T17:05:57;23.50;99.90
53599;DHT22;39485;45.702;11.364;2022-08-19T17:08:25;23.50;99.90
53599;DHT22;39485;45.702;11.364;2022-08-19T17:10:53;23.50;99.90
53599;DHT22;39485;45.702;11.364;2022-08-19T17:13:20;23.50;99.90
53599;DHT22;39485;45.702;11.364;2022-08-19T17:15:47;23.60;99.90
53599;DHT22;39485;45.702;11.364;2022-08-19T17:18:13;23.60;99.90
53599;DHT22;39485;45.702;11.364;2022-08-19T17:20:40;23.50;99.90
53599;DHT22;39485;45.702;11.364;2022-08-19T17:23:06;23.50;99.90
53599;DHT22;39485;45.702;11.364;2022-08-19T17:25:32;23.50;99.90
53599;DHT22;39485;45.702;11.364;2022-08-19T17:28:12;23.50;99.90
53599;DHT22;39485;45.702;11.364;2022-08-19T17:30:38;23.40;99.90
53599;DHT22;39485;45.702;11.364;2022-08-19T17:33:06;23.40;99.90
53599;DHT22;39485;45.702;11.364;2022-08-19T17:35:32;23.40;99.90
53599;DHT22;39485;45.702;11.364;2022-08-19T17:38:06;23.40;99.90
53599;DHT22;39485;45.702;11.364;2022-08-19T17:40:33;23.40;99.90
53599;DHT22;39485;45.702;11.364;2022-08-19T17:42:59;23.40;99.90
53599;DHT22;39485;45.702;11.364;2022-08-19T17:45:25;23.30;99.90
53599;DHT22;39485;45.702;11.364;2022-08-19T17:47:52;23.30;99.90
53599;DHT22;39485;45.702;11.364;2022-08-19T17:50:20;23.20;99.90
53599;DHT22;39485;45.702;11.364;2022-08-19T17:52:47;23.20;99.90
53599;DHT22;39485;45.702;11.364;2022-08-19T17:55:17;23.20;99.90
53599;DHT22;39485;45.702;11.364;2022-08-19T17:57:44;23.20;99.90
53599;DHT22;39485;45.702;11.364;2022-08-19T18:00:10;23.10;99.90
53599;DHT22;39485;45.702;11.364;2022-08-19T18:02:53;23.10;99.90
53599;DHT22;39485;45.702;11.364;2022-08-19T18:05:22;23.00;99.90
53599;DHT22;39485;45.702;11.364;2022-08-19T18:07:53;22.90;99.90
53599;DHT22;39485;45.702;11.364;2022-08-19T18:10:19;22.90;99.90
53599;DHT22;39485;45.702;11.364;2022-08-19T18:12:45;22.70;99.90
53599;DHT22;39485;45.702;11.364;2022-08-19T18:15:11;22.70;99.90
53599;DHT22;39485;45.702;11.364;2022-08-19T18:17:37;22.60;99.90
53599;DHT22;39485;45.702;11.364;2022-08-19T18:20:09;22.50;99.90
53599;DHT22;39485;45.702;11.364;2022-08-19T18:22:38;22.40;99.90
53599;DHT22;39485;45.702;11.364;2022-08-19T18:25:26;22.40;99.90